createdAt,value
2019-05-02T00:01:01.772Z,15.60
2019-05-02T00:08:33.198Z,15.40
2019-05-02T00:11:02.958Z,15.50
2019-05-02T00:13:32.514Z,15.40
2019-05-02T00:16:02.070Z,15.40
2019-05-02T00:18:36.711Z,15.40
2019-05-02T00:21:03.701Z,15.50
2019-05-02T00:23:33.141Z,15.40
2019-05-02T00:26:02.648Z,15.30
2019-05-02T00:28:32.249Z,15.30
2019-05-02T00:31:01.859Z,15.30
2019-05-02T00:33:34.427Z,15.20
2019-05-02T00:38:33.316Z,15.20
2019-05-02T00:41:03.736Z,15.20
2019-05-02T00:43:34.400Z,15.20
2019-05-02T00:46:04.619Z,15.20
2019-05-02T00:48:35.761Z,15.10
2019-05-02T00:51:07.876Z,15.10
2019-05-02T00:53:37.396Z,15.00
2019-05-02T00:56:09.091Z,15.20
2019-05-02T01:01:08.693Z,15.10
2019-05-02T01:03:39.757Z,15.20
2019-05-02T01:06:13.716Z,15.10
2019-05-02T01:08:40.319Z,15.10
2019-05-02T01:11:09.772Z,15.00
2019-05-02T01:13:39.307Z,15.00
2019-05-02T01:16:10.035Z,14.90
2019-05-02T01:18:41.419Z,15.00
2019-05-02T01:21:10.679Z,14.90
2019-05-02T01:23:40.182Z,14.90
2019-05-02T01:26:11.239Z,14.80
2019-05-02T01:28:58.544Z,14.70
2019-05-02T01:34:03.289Z,14.80
2019-05-02T01:36:50.815Z,14.80
2019-05-02T01:39:20.419Z,14.60
2019-05-02T01:41:49.912Z,14.70
2019-05-02T01:44:19.301Z,14.70
2019-05-02T01:51:49.364Z,14.60
2019-05-02T01:54:18.978Z,14.70
2019-05-02T01:59:17.680Z,14.50
2019-05-02T02:01:47.183Z,14.50
2019-05-02T02:04:21.032Z,14.50
2019-05-02T02:06:47.830Z,14.30
2019-05-02T02:09:17.539Z,14.40
2019-05-02T02:11:47.154Z,14.40
2019-05-02T02:14:18.783Z,14.40
2019-05-02T02:16:47.902Z,14.30
2019-05-02T02:19:19.141Z,14.40
2019-05-02T02:21:57.419Z,14.30
2019-05-02T02:27:01.380Z,14.30
2019-05-02T02:29:30.985Z,14.30
2019-05-02T02:32:00.457Z,14.30
2019-05-02T02:34:32.313Z,14.30
2019-05-02T02:39:31.861Z,14.20
2019-05-02T02:42:01.572Z,14.10
2019-05-02T02:47:18.288Z,14.30
2019-05-02T02:49:42.783Z,14.20
2019-05-02T02:57:20.556Z,14.20
2019-05-02T02:59:43.978Z,14.20
2019-05-02T03:04:45.944Z,14.20
2019-05-02T03:07:24.159Z,14.10
2019-05-02T03:09:46.998Z,14.10
2019-05-02T03:12:20.917Z,13.90
2019-05-02T03:14:51.959Z,13.90
2019-05-02T03:17:26.555Z,11.20
2019-05-02T03:19:54.257Z,13.80
2019-05-02T03:22:23.751Z,13.80
2019-05-02T03:24:53.254Z,13.80
2019-05-02T03:27:22.851Z,13.80
2019-05-02T03:29:52.563Z,13.90
2019-05-02T03:32:33.342Z,13.90
2019-05-02T03:34:54.213Z,13.90
2019-05-02T03:37:23.943Z,13.90
2019-05-02T03:39:57.602Z,13.80
2019-05-02T03:42:24.486Z,13.80
2019-05-02T03:45:01.656Z,13.80
2019-05-02T03:50:15.936Z,13.80
2019-05-02T03:52:46.542Z,13.70
2019-05-02T03:55:16.276Z,13.60
2019-05-02T03:57:46.109Z,13.60
2019-05-02T04:00:21.103Z,13.60
2019-05-02T04:02:53.287Z,13.60
2019-05-02T04:05:18.328Z,13.50
2019-05-02T04:07:47.891Z,13.50
2019-05-02T04:12:53.255Z,13.40
2019-05-02T04:15:20.914Z,13.50
2019-05-02T04:17:50.520Z,13.40
2019-05-02T04:20:20.016Z,13.50
2019-05-02T04:25:21.383Z,13.40
2019-05-02T04:30:20.193Z,13.40
2019-05-02T04:32:55.830Z,13.30
2019-05-02T04:35:20.896Z,13.30
2019-05-02T04:42:51.257Z,13.50
2019-05-02T04:45:26.317Z,13.40
2019-05-02T04:47:59.002Z,13.40
2019-05-02T04:50:25.393Z,13.40
2019-05-02T04:52:54.098Z,13.40
2019-05-02T04:55:30.295Z,13.40
2019-05-02T05:00:28.596Z,13.40
2019-05-02T05:05:31.022Z,13.60
2019-05-02T05:07:58.817Z,13.70
2019-05-02T05:10:28.358Z,13.60
2019-05-02T05:12:57.824Z,13.60
2019-05-02T05:17:58.329Z,13.80
2019-05-02T05:20:28.018Z,13.70
2019-05-02T05:22:58.145Z,13.90
2019-05-02T05:25:29.652Z,13.70
2019-05-02T05:28:05.651Z,13.90
2019-05-02T05:32:59.644Z,13.80
2019-05-02T05:37:58.165Z,13.80
2019-05-02T05:43:02.694Z,13.70
2019-05-02T05:45:29.566Z,13.70
2019-05-02T05:48:01.062Z,13.70
2019-05-02T05:50:32.114Z,13.60
2019-05-02T05:53:01.254Z,13.70
2019-05-02T05:55:31.695Z,13.70
2019-05-02T05:58:11.849Z,14.00
2019-05-02T06:00:33.551Z,14.10
2019-05-02T06:03:13.028Z,14.20
2019-05-02T06:08:05.136Z,14.10
2019-05-02T06:10:34.537Z,14.10
2019-05-02T06:13:05.230Z,14.10
2019-05-02T06:15:39.042Z,14.30
2019-05-02T06:18:06.333Z,14.30
2019-05-02T06:20:35.740Z,14.40
2019-05-02T06:23:05.239Z,14.50
2019-05-02T06:25:36.752Z,14.50
2019-05-02T06:28:06.827Z,14.50
2019-05-02T06:30:36.505Z,14.50
2019-05-02T06:33:06.011Z,14.40
2019-05-02T06:35:35.516Z,14.60
2019-05-02T06:38:04.902Z,14.70
2019-05-02T06:43:09.792Z,14.90
2019-05-02T06:45:39.563Z,15.00
2019-05-02T06:48:08.258Z,14.90
2019-05-02T06:50:38.830Z,15.00
2019-05-02T06:56:30.277Z,15.30
2019-05-02T06:59:01.471Z,15.40
2019-05-02T07:01:31.339Z,15.40
2019-05-02T07:04:03.998Z,15.40
2019-05-02T07:06:39.985Z,15.40
2019-05-02T07:09:04.391Z,15.60
2019-05-02T07:11:38.884Z,15.50
2019-05-02T07:14:13.052Z,15.70
2019-05-02T07:16:41.523Z,15.80
2019-05-02T07:19:12.626Z,15.90
2019-05-02T07:24:11.114Z,16.00
2019-05-02T07:26:40.655Z,16.10
2019-05-02T07:31:43.054Z,15.80
2019-05-02T07:34:12.876Z,15.90
2019-05-02T07:36:41.544Z,15.90
2019-05-02T07:39:11.254Z,16.10
2019-05-02T07:41:40.651Z,16.10
2019-05-02T07:44:10.255Z,16.20
2019-05-02T07:46:51.172Z,16.20
2019-05-02T07:49:10.819Z,16.20
2019-05-02T07:51:40.405Z,16.30
2019-05-02T07:54:09.808Z,16.40
2019-05-02T07:56:39.209Z,16.40
2019-05-02T07:59:08.713Z,16.30
2019-05-02T08:01:38.347Z,16.30
2019-05-02T08:04:11.014Z,16.40
2019-05-02T08:06:40.142Z,16.40
2019-05-02T08:09:10.014Z,15.80
2019-05-02T08:11:39.616Z,16.50
2019-05-02T08:14:09.117Z,16.60
2019-05-02T08:16:38.620Z,16.60
2019-05-02T08:19:08.131Z,16.70
2019-05-02T08:21:37.628Z,16.70
2019-05-02T08:24:07.239Z,16.80
2019-05-02T08:26:47.185Z,16.80
2019-05-02T08:29:16.689Z,16.90
2019-05-02T08:31:46.052Z,16.80
2019-05-02T08:34:17.236Z,16.90
2019-05-02T08:36:46.736Z,17.10
2019-05-02T08:39:16.105Z,17.00
2019-05-02T08:44:16.811Z,17.00
2019-05-02T08:46:46.229Z,17.20
2019-05-02T08:49:18.878Z,17.20
2019-05-02T08:51:48.034Z,17.20
2019-05-02T08:54:17.572Z,17.20
2019-05-02T08:56:47.068Z,17.30
2019-05-02T08:59:19.705Z,17.30
2019-05-02T09:04:18.964Z,17.50
2019-05-02T09:06:48.407Z,17.60
2019-05-02T09:09:17.969Z,17.70
2019-05-02T09:12:01.002Z,18.60
2019-05-02T09:14:18.514Z,17.70
2019-05-02T09:16:48.019Z,17.90
2019-05-02T09:19:21.342Z,17.90
2019-05-02T09:22:02.545Z,17.80
2019-05-02T09:24:33.227Z,18.00
2019-05-02T09:27:02.641Z,18.10
2019-05-02T09:29:32.755Z,18.20
2019-05-02T09:32:02.450Z,18.20
2019-05-02T09:34:33.083Z,18.40
2019-05-02T09:37:02.792Z,18.50
2019-05-02T09:39:36.414Z,18.60
2019-05-02T09:42:06.596Z,18.60
2019-05-02T09:44:34.588Z,18.70
2019-05-02T09:47:04.184Z,18.70
2019-05-02T09:49:33.587Z,18.70
2019-05-02T09:52:03.431Z,18.80
2019-05-02T09:54:36.912Z,18.90
2019-05-02T09:57:04.148Z,18.90
2019-05-02T09:59:33.722Z,19.00
2019-05-02T10:02:04.283Z,19.40
2019-05-02T10:04:34.910Z,19.20
2019-05-02T10:07:04.730Z,19.40
2019-05-02T10:09:34.225Z,19.50
2019-05-02T10:12:03.736Z,19.50
2019-05-02T10:14:33.449Z,19.50
2019-05-02T10:17:07.126Z,19.70
2019-05-02T10:22:03.588Z,19.90
2019-05-02T10:24:33.196Z,19.90
2019-05-02T10:27:06.500Z,20.10
2019-05-02T10:29:33.644Z,20.00
2019-05-02T10:32:02.928Z,20.20
2019-05-02T10:34:32.953Z,18.70
2019-05-02T10:37:03.201Z,20.60
2019-05-02T10:39:33.938Z,20.70
2019-05-02T10:42:03.823Z,20.60
2019-05-02T10:44:36.473Z,20.60
2019-05-02T10:47:04.682Z,20.50
2019-05-02T10:52:04.885Z,20.90
2019-05-02T10:54:37.566Z,21.00
2019-05-02T10:57:06.331Z,21.00
2019-05-02T10:59:35.777Z,21.20
2019-05-02T11:04:50.043Z,21.50
2019-05-02T11:07:22.724Z,21.70
2019-05-02T11:10:06.996Z,21.90
2019-05-02T11:12:44.430Z,22.20
2019-05-02T11:15:14.579Z,22.40
2019-05-02T11:17:46.028Z,22.60
2019-05-02T11:20:15.548Z,22.90
2019-05-02T11:22:45.038Z,22.90
2019-05-02T11:25:14.432Z,23.20
2019-05-02T11:27:43.920Z,23.30
2019-05-02T11:30:16.727Z,23.50
2019-05-02T11:32:44.691Z,23.70
2019-05-02T11:35:14.094Z,23.90
2019-05-02T11:37:43.603Z,24.20
2019-05-02T11:40:13.211Z,24.40
2019-05-02T11:42:42.708Z,24.60
2019-05-02T11:45:12.595Z,24.80
2019-05-02T11:47:42.337Z,25.10
2019-05-02T11:50:11.970Z,25.30
2019-05-02T11:52:42.418Z,25.70
2019-05-02T11:55:12.943Z,25.80
2019-05-02T11:57:42.763Z,26.00
2019-05-02T12:00:12.545Z,26.00
2019-05-02T12:02:43.860Z,26.50
2019-05-02T12:05:15.001Z,26.50
2019-05-02T12:07:44.484Z,27.30
2019-05-02T12:10:14.011Z,27.70
2019-05-02T12:12:43.516Z,30.50
2019-05-02T12:15:13.019Z,34.20
2019-05-02T12:17:42.418Z,34.80
2019-05-02T12:20:12.542Z,35.90
2019-05-02T12:22:42.066Z,37.10
2019-05-02T12:25:12.625Z,38.00
2019-05-02T12:27:42.614Z,38.30
2019-05-02T12:30:12.231Z,39.10
2019-05-02T12:32:42.731Z,38.00
2019-05-02T12:35:13.352Z,38.80
2019-05-02T12:37:46.963Z,39.30
2019-05-02T12:40:13.925Z,40.10
2019-05-02T12:42:43.501Z,39.70
2019-05-02T12:45:13.211Z,39.60
2019-05-02T12:47:42.946Z,39.70
2019-05-02T12:50:12.732Z,38.20
2019-05-02T12:52:42.880Z,39.40
2019-05-02T12:55:12.858Z,41.10
2019-05-02T12:57:43.601Z,42.50
2019-05-02T13:00:13.207Z,43.10
2019-05-02T13:02:47.023Z,43.50
2019-05-02T13:05:16.364Z,41.80
2019-05-02T13:07:50.526Z,38.80
2019-05-02T13:10:18.495Z,37.30
2019-05-02T13:12:47.895Z,38.00
2019-05-02T13:15:17.746Z,37.20
2019-05-02T13:17:48.946Z,37.50
2019-05-02T13:20:22.174Z,38.20
2019-05-02T13:22:54.924Z,38.80
2019-05-02T13:25:27.402Z,38.60
2019-05-02T13:27:57.180Z,38.50
2019-05-02T13:30:42.761Z,38.50
2019-05-02T13:33:12.124Z,37.30
2019-05-02T13:35:46.096Z,36.10
2019-05-02T13:38:18.170Z,35.90
2019-05-02T13:43:16.869Z,35.80
2019-05-02T13:45:52.675Z,35.10
2019-05-02T13:48:22.121Z,35.30
2019-05-02T13:50:51.911Z,38.30
2019-05-02T13:54:12.435Z,40.90
2019-05-02T13:56:45.059Z,42.00
2019-05-02T13:59:14.307Z,40.70
2019-05-02T14:01:44.015Z,40.40
2019-05-02T14:04:14.939Z,41.10
2019-05-02T14:06:44.760Z,42.00
2019-05-02T14:09:22.765Z,42.40
2019-05-02T14:12:01.829Z,42.90
2019-05-02T14:14:32.533Z,43.10
2019-05-02T14:17:02.980Z,43.90
2019-05-02T14:19:33.521Z,44.30
2019-05-02T14:22:03.047Z,44.60
2019-05-02T14:24:33.098Z,44.70
2019-05-02T14:27:02.823Z,44.90
2019-05-02T14:29:33.499Z,45.10
2019-05-02T14:32:02.902Z,45.00
2019-05-02T14:34:39.721Z,45.10
2019-05-02T14:37:09.183Z,45.30
2019-05-02T14:39:38.609Z,45.50
2019-05-02T14:42:08.010Z,45.40
2019-05-02T14:45:01.236Z,45.30
2019-05-02T14:47:10.124Z,44.70
2019-05-02T14:49:39.514Z,44.80
2019-05-02T14:52:08.913Z,45.10
2019-05-02T14:54:43.887Z,44.50
2019-05-02T14:57:11.926Z,45.10
2019-05-02T14:59:42.857Z,45.60
2019-05-02T15:02:14.107Z,45.80
2019-05-02T15:04:48.357Z,46.50
2019-05-02T15:07:17.645Z,46.70
2019-05-02T15:09:45.373Z,46.90
2019-05-02T15:12:18.725Z,46.30
2019-05-02T15:14:49.836Z,46.30
2019-05-02T15:17:16.809Z,46.90
2019-05-02T15:19:46.208Z,47.40
2019-05-02T15:22:15.761Z,47.40
2019-05-02T15:24:45.169Z,47.10
2019-05-02T15:29:45.194Z,46.80
